createdAt,value
2018-04-12T00:02:01.375Z,15.06
2018-04-12T00:04:29.782Z,15.09
2018-04-12T00:06:58.181Z,15.06
2018-04-12T00:09:26.544Z,14.93
2018-04-12T00:11:54.919Z,14.95
2018-04-12T00:14:23.286Z,14.94
2018-04-12T00:16:52.163Z,14.99
2018-04-12T00:19:20.524Z,15.04
2018-04-12T00:21:48.928Z,15.05
2018-04-12T00:24:17.299Z,14.90
2018-04-12T00:26:45.669Z,14.78
2018-04-12T00:29:14.066Z,14.61
2018-04-12T00:31:42.445Z,14.85
2018-04-12T00:34:11.157Z,14.91
2018-04-12T00:36:39.516Z,14.94
2018-04-12T00:39:09.259Z,15.01
2018-04-12T00:41:37.634Z,15.06
2018-04-12T00:44:06.016Z,15.09
2018-04-12T00:46:34.397Z,15.12
2018-04-12T00:49:02.942Z,15.12
2018-04-12T00:51:31.949Z,15.14
2018-04-12T00:54:05.620Z,15.17
2018-04-12T00:56:33.999Z,15.19
2018-04-12T00:59:02.373Z,15.20
2018-04-12T01:01:30.741Z,15.19
2018-04-12T01:03:59.139Z,15.21
2018-04-12T01:06:27.540Z,15.22
2018-04-12T01:08:55.905Z,15.24
2018-04-12T01:11:24.272Z,15.25
2018-04-12T01:13:52.635Z,15.26
2018-04-12T01:16:21.041Z,15.22
2018-04-12T01:18:49.191Z,15.21
2018-04-12T01:21:17.570Z,15.16
2018-04-12T01:23:45.982Z,15.13
2018-04-12T01:26:14.353Z,15.09
2018-04-12T01:28:42.725Z,15.05
2018-04-12T01:31:11.129Z,15.04
2018-04-12T01:33:39.496Z,15.00
2018-04-12T01:36:08.582Z,15.00
2018-04-12T01:38:36.964Z,14.99
2018-04-12T01:41:05.337Z,14.98
2018-04-12T01:43:33.720Z,14.96
2018-04-12T01:46:02.098Z,14.96
2018-04-12T01:48:30.488Z,14.93
2018-04-12T01:53:57.500Z,14.89
2018-04-12T01:56:25.891Z,14.86
2018-04-12T01:58:54.252Z,14.82
2018-04-12T02:01:22.617Z,14.78
2018-04-12T02:03:50.981Z,14.73
2018-04-12T02:06:19.381Z,14.73
2018-04-12T02:08:47.756Z,14.68
2018-04-12T02:11:15.888Z,14.61
2018-04-12T02:13:45.426Z,14.55
2018-04-12T02:16:13.798Z,14.49
2018-04-12T02:18:42.828Z,14.47
2018-04-12T02:21:11.211Z,14.47
2018-04-12T02:23:39.591Z,14.46
2018-04-12T02:26:07.971Z,14.43
2018-04-12T02:28:36.533Z,14.46
2018-04-12T02:31:04.925Z,14.45
2018-04-12T02:33:33.297Z,14.46
2018-04-12T02:36:01.666Z,14.44
2018-04-12T02:38:29.801Z,14.45
2018-04-12T02:40:58.382Z,14.42
2018-04-12T02:43:26.749Z,14.45
2018-04-12T02:45:55.125Z,14.47
2018-04-12T02:48:23.532Z,14.54
2018-04-12T02:50:51.903Z,14.56
2018-04-12T02:53:20.282Z,14.58
2018-04-12T02:55:48.664Z,14.38
2018-04-12T02:58:17.075Z,14.48
2018-04-12T03:00:46.113Z,14.48
2018-04-12T03:03:14.479Z,14.47
2018-04-12T03:05:43.193Z,14.47
2018-04-12T03:08:11.569Z,14.47
2018-04-12T03:10:39.608Z,14.48
2018-04-12T03:13:07.979Z,14.46
2018-04-12T03:15:36.358Z,14.51
2018-04-12T03:18:04.745Z,14.39
2018-04-12T03:20:33.296Z,14.56
2018-04-12T03:23:01.674Z,14.62
2018-04-12T03:25:30.076Z,14.66
2018-04-12T03:27:58.455Z,14.65
2018-04-12T03:30:26.833Z,14.66
2018-04-12T03:32:55.214Z,14.69
2018-04-12T03:35:23.593Z,14.64
2018-04-12T03:37:51.966Z,14.61
2018-04-12T03:40:20.357Z,14.53
2018-04-12T03:42:48.743Z,14.52
2018-04-12T03:45:17.706Z,14.52
2018-04-12T03:47:46.091Z,14.50
2018-04-12T03:50:14.475Z,14.53
2018-04-12T03:52:42.845Z,14.55
2018-04-12T03:55:13.539Z,14.61
2018-04-12T03:57:41.926Z,14.66
2018-04-12T04:00:10.093Z,14.66
2018-04-12T04:02:38.459Z,14.69
2018-04-12T04:05:14.813Z,14.71
2018-04-12T04:07:43.320Z,14.69
2018-04-12T04:10:16.876Z,14.70
2018-04-12T04:12:45.240Z,14.73
2018-04-12T04:15:24.484Z,14.74
2018-04-12T04:18:04.465Z,14.70
2018-04-12T04:20:43.858Z,14.72
2018-04-12T04:23:12.242Z,14.68
2018-04-12T04:25:40.625Z,14.67
2018-04-12T04:28:09.057Z,14.61
2018-04-12T04:30:37.429Z,14.56
2018-04-12T04:33:05.794Z,14.55
2018-04-12T04:35:34.160Z,14.58
2018-04-12T04:38:02.550Z,14.59
2018-04-12T04:40:30.917Z,14.60
2018-04-12T04:42:59.335Z,14.60
2018-04-12T04:45:27.714Z,14.68
2018-04-12T04:47:55.872Z,14.71
2018-04-12T04:50:24.443Z,14.70
2018-04-12T04:52:52.842Z,14.72
2018-04-12T04:55:21.221Z,14.75
2018-04-12T04:57:49.374Z,14.82
2018-04-12T05:00:17.757Z,14.18
2018-04-12T05:02:45.899Z,14.87
2018-04-12T05:05:14.209Z,14.89
2018-04-12T05:07:42.371Z,14.92
2018-04-12T05:10:12.490Z,14.93
2018-04-12T05:12:40.881Z,14.92
2018-04-12T05:15:13.144Z,14.32
2018-04-12T05:17:41.235Z,14.88
2018-04-12T05:20:12.353Z,14.88
2018-04-12T05:22:40.492Z,14.90
2018-04-12T05:25:12.179Z,14.92
2018-04-12T05:27:40.571Z,14.93
2018-04-12T05:30:16.669Z,15.04
2018-04-12T05:32:45.078Z,15.15
2018-04-12T05:35:13.446Z,15.20
2018-04-12T05:37:41.829Z,15.21
2018-04-12T05:40:12.895Z,15.26
2018-04-12T05:42:41.289Z,15.39
2018-04-12T05:45:11.183Z,15.56
2018-04-12T05:47:39.550Z,15.66
2018-04-12T05:50:12.963Z,15.67
2018-04-12T05:52:41.812Z,15.72
2018-04-12T05:55:16.197Z,15.82
2018-04-12T05:57:44.569Z,15.84
2018-04-12T06:00:15.980Z,15.96
2018-04-12T06:02:44.352Z,16.08
2018-04-12T06:05:17.062Z,16.14
2018-04-12T06:07:45.437Z,16.19
2018-04-12T06:10:13.819Z,16.26
2018-04-12T06:12:42.199Z,16.33
2018-04-12T06:15:12.512Z,16.34
2018-04-12T06:17:40.889Z,16.39
2018-04-12T06:20:10.145Z,16.41
2018-04-12T06:22:38.509Z,16.52
2018-04-12T06:25:09.961Z,16.59
2018-04-12T06:27:38.373Z,16.70
2018-04-12T06:30:13.421Z,16.73
2018-04-12T06:32:41.827Z,16.89
2018-04-12T06:35:16.746Z,16.97
2018-04-12T06:37:45.112Z,17.01
2018-04-12T06:40:15.218Z,16.68
2018-04-12T06:42:43.588Z,17.18
2018-04-12T06:45:15.874Z,17.32
2018-04-12T06:47:44.324Z,17.46
2018-04-12T06:50:15.230Z,17.62
2018-04-12T06:52:45.045Z,17.81
2018-04-12T06:55:15.907Z,17.87
2018-04-12T06:57:44.278Z,18.04
2018-04-12T07:00:13.009Z,18.23
2018-04-12T07:02:41.374Z,18.40
2018-04-12T07:05:15.077Z,18.54
2018-04-12T07:07:43.450Z,18.46
2018-04-12T07:10:15.006Z,18.40
2018-04-12T07:12:43.384Z,18.76
2018-04-12T07:15:13.881Z,18.92
2018-04-12T07:17:42.248Z,19.12
2018-04-12T07:20:14.453Z,19.24
2018-04-12T07:22:42.848Z,19.36
2018-04-12T07:25:11.515Z,19.45
2018-04-12T07:27:39.663Z,19.45
2018-04-12T07:30:16.493Z,18.96
2018-04-12T07:32:44.865Z,19.55
2018-04-12T07:35:15.802Z,19.57
2018-04-12T07:37:43.941Z,19.60
2018-04-12T07:40:16.161Z,19.29
2018-04-12T07:42:44.534Z,19.71
2018-04-12T07:45:12.922Z,19.76
2018-04-12T07:47:41.061Z,19.96
2018-04-12T07:50:13.108Z,20.02
2018-04-12T07:52:41.499Z,19.95
2018-04-12T07:55:10.014Z,19.95
2018-04-12T07:57:38.193Z,20.20
2018-04-12T08:00:12.232Z,20.10
2018-04-12T08:02:40.606Z,20.10
2018-04-12T08:05:11.347Z,20.15
2018-04-12T08:07:39.712Z,20.20
2018-04-12T08:10:10.915Z,20.24
2018-04-12T08:12:39.296Z,20.32
2018-04-12T08:15:09.024Z,20.42
2018-04-12T08:17:37.386Z,20.52
2018-04-12T08:20:06.678Z,20.70
2018-04-12T08:22:37.796Z,20.89
2018-04-12T08:25:14.773Z,20.97
2018-04-12T08:27:43.157Z,20.99
2018-04-12T08:30:16.816Z,21.05
2018-04-12T08:32:45.196Z,21.22
2018-04-12T08:35:13.573Z,21.24
2018-04-12T08:37:41.942Z,21.34
2018-04-12T08:40:12.736Z,20.93
2018-04-12T08:42:41.110Z,21.41
2018-04-12T08:45:16.426Z,21.48
2018-04-12T08:47:44.824Z,21.68
2018-04-12T08:50:13.252Z,21.86
2018-04-12T08:52:41.638Z,21.82
2018-04-12T08:55:15.238Z,21.95
2018-04-12T08:57:43.629Z,21.99
2018-04-12T09:00:14.454Z,22.16
2018-04-12T09:02:42.831Z,21.99
2018-04-12T09:05:16.905Z,22.09
2018-04-12T09:07:45.298Z,22.17
2018-04-12T09:10:13.654Z,22.20
2018-04-12T09:12:42.025Z,22.41
2018-04-12T09:15:13.016Z,22.45
2018-04-12T09:17:41.368Z,22.49
2018-04-12T09:20:16.153Z,22.79
2018-04-12T09:22:44.512Z,22.72
2018-04-12T09:25:18.505Z,22.51
2018-04-12T09:27:46.924Z,22.92
2018-04-12T09:30:15.464Z,23.02
2018-04-12T09:32:43.831Z,23.16
2018-04-12T09:35:12.197Z,23.46
2018-04-12T09:37:40.561Z,23.38
2018-04-12T09:40:09.988Z,23.28
2018-04-12T09:42:38.149Z,23.42
2018-04-12T09:45:07.616Z,23.52
2018-04-12T09:47:35.979Z,23.73
2018-04-12T09:50:04.035Z,23.90
2018-04-12T09:52:32.392Z,24.20
2018-04-12T09:55:00.872Z,24.74
2018-04-12T09:57:29.231Z,25.05
2018-04-12T09:59:57.640Z,25.73
2018-04-12T10:02:29.168Z,26.09
2018-04-12T10:05:00.351Z,26.55
2018-04-12T10:10:37.829Z,26.17
2018-04-12T10:13:06.203Z,25.97
2018-04-12T10:15:34.581Z,26.06
2018-04-12T10:18:02.948Z,26.40
2018-04-12T10:20:31.325Z,27.09
2018-04-12T10:22:59.692Z,27.06
2018-04-12T10:25:28.072Z,27.60
2018-04-12T10:27:56.321Z,27.48
2018-04-12T10:30:24.725Z,27.50
2018-04-12T10:32:53.159Z,27.40
2018-04-12T10:35:21.675Z,27.41
2018-04-12T10:37:50.053Z,27.73
2018-04-12T10:40:18.438Z,27.48
2018-04-12T10:42:46.819Z,27.80
2018-04-12T10:45:14.965Z,27.78
2018-04-12T10:47:43.345Z,27.33
2018-04-12T10:50:11.730Z,26.99
2018-04-12T10:52:40.103Z,27.37
2018-04-12T10:55:08.551Z,27.57
2018-04-12T10:57:36.923Z,27.30
2018-04-12T11:00:05.590Z,26.73
2018-04-12T11:02:33.974Z,26.50
2018-04-12T11:05:02.352Z,26.55
2018-04-12T11:07:30.722Z,26.18
2018-04-12T11:09:59.099Z,26.07
2018-04-12T11:12:27.508Z,26.13
2018-04-12T11:14:55.895Z,26.31
2018-04-12T11:17:24.262Z,26.46
2018-04-12T11:19:52.709Z,26.13
2018-04-12T11:22:21.074Z,25.96
2018-04-12T11:24:49.450Z,25.77
2018-04-12T11:27:17.844Z,26.02
2018-04-12T11:29:46.234Z,26.02
2018-04-12T11:32:14.606Z,26.14
2018-04-12T11:34:43.008Z,26.24
2018-04-12T11:37:11.377Z,25.99
2018-04-12T11:39:39.748Z,26.28
2018-04-12T11:42:08.870Z,26.32
2018-04-12T11:44:37.281Z,26.64
2018-04-12T11:47:05.656Z,26.49
2018-04-12T11:49:34.041Z,26.29
2018-04-12T11:52:02.441Z,26.51
2018-04-12T11:54:30.816Z,26.66
2018-04-12T11:56:59.194Z,26.97
2018-04-12T11:59:27.604Z,26.57
2018-04-12T12:01:55.989Z,26.62
2018-04-12T12:04:24.365Z,26.79
2018-04-12T12:06:52.748Z,26.88
2018-04-12T12:09:21.175Z,26.59
2018-04-12T12:11:49.542Z,26.94
2018-04-12T12:14:17.928Z,26.21
2018-04-12T12:16:46.310Z,26.07
2018-04-12T12:19:14.701Z,26.05
2018-04-12T12:21:43.086Z,26.30
2018-04-12T12:24:11.465Z,26.39
2018-04-12T12:26:39.846Z,26.39
2018-04-12T12:29:08.215Z,26.49
2018-04-12T12:31:36.600Z,26.55
2018-04-12T12:34:04.983Z,27.00
2018-04-12T12:36:33.357Z,26.85
2018-04-12T12:39:01.753Z,26.65
2018-04-12T12:41:30.121Z,27.12
2018-04-12T12:43:58.488Z,26.95
2018-04-12T12:46:26.882Z,26.52
2018-04-12T12:48:55.254Z,26.39
2018-04-12T12:51:23.664Z,26.50
2018-04-12T12:53:52.049Z,26.12
2018-04-12T12:56:20.430Z,26.39
2018-04-12T12:58:48.808Z,26.40
2018-04-12T13:01:17.215Z,25.78
2018-04-12T13:03:45.620Z,25.68
2018-04-12T13:06:14.174Z,25.78
2018-04-12T13:08:42.559Z,26.04
2018-04-12T13:11:10.952Z,26.03
2018-04-12T13:13:39.331Z,26.21
2018-04-12T13:16:07.781Z,26.46
2018-04-12T13:18:36.168Z,26.41
2018-04-12T13:21:04.553Z,26.36
2018-04-12T13:23:32.712Z,26.49
2018-04-12T13:26:01.109Z,26.30
2018-04-12T13:28:29.256Z,26.27
2018-04-12T13:30:57.661Z,26.11
2018-04-12T13:33:26.645Z,26.33
2018-04-12T13:35:55.028Z,25.90
2018-04-12T13:38:23.401Z,25.81
2018-04-12T13:40:51.795Z,26.01
2018-04-12T13:43:20.185Z,26.28
2018-04-12T13:45:48.531Z,26.41
2018-04-12T13:48:16.666Z,26.12
2018-04-12T13:50:45.042Z,25.89
2018-04-12T13:53:13.435Z,25.97
2018-04-12T13:55:41.956Z,25.75
2018-04-12T13:58:10.323Z,25.82
2018-04-12T14:00:38.708Z,25.72
2018-04-12T14:03:07.087Z,25.95
2018-04-12T14:05:35.550Z,25.71
2018-04-12T14:08:03.931Z,25.66
2018-04-12T14:10:32.303Z,25.80
2018-04-12T14:13:00.679Z,25.55
2018-04-12T14:15:29.056Z,25.51
2018-04-12T14:17:57.425Z,25.40
2018-04-12T14:20:25.797Z,25.32
2018-04-12T14:22:54.171Z,25.64
2018-04-12T14:25:22.561Z,25.69
2018-04-12T14:27:50.933Z,25.90
2018-04-12T14:30:19.333Z,26.04
2018-04-12T14:32:47.713Z,25.85
2018-04-12T14:35:16.091Z,25.59
2018-04-12T14:37:44.509Z,25.34
2018-04-12T14:40:13.112Z,24.75
2018-04-12T14:42:41.482Z,25.07
2018-04-12T14:45:09.848Z,24.72
2018-04-12T14:47:38.275Z,24.70
2018-04-12T14:50:06.658Z,24.94
2018-04-12T14:52:35.042Z,25.18
2018-04-12T14:55:03.410Z,25.18
2018-04-12T14:57:31.781Z,25.05
2018-04-12T15:00:00.160Z,25.11
2018-04-12T15:02:28.527Z,24.84
2018-04-12T15:04:56.924Z,24.54
2018-04-12T15:07:25.240Z,24.49
2018-04-12T15:09:53.607Z,24.51
2018-04-12T15:12:21.973Z,24.55
2018-04-12T15:14:50.341Z,24.23
2018-04-12T15:17:18.716Z,24.18
2018-04-12T15:19:47.084Z,24.18
2018-04-12T15:22:15.468Z,24.01
2018-04-12T15:24:43.841Z,24.08
2018-04-12T15:27:12.238Z,24.10
2018-04-12T15:29:40.396Z,24.15
2018-04-12T15:32:09.330Z,24.12
2018-04-12T15:34:37.648Z,24.08
2018-04-12T15:37:05.723Z,23.89
2018-04-12T15:39:34.122Z,23.91
2018-04-12T15:42:02.565Z,23.82
2018-04-12T15:44:30.937Z,23.86
2018-04-12T15:46:59.336Z,23.59
2018-04-12T15:49:27.733Z,23.58
2018-04-12T15:51:56.119Z,23.52
2018-04-12T15:54:24.500Z,23.53
2018-04-12T15:56:52.875Z,23.55
2018-04-12T15:59:21.022Z,23.37
2018-04-12T16:01:49.181Z,23.28
2018-04-12T16:04:17.550Z,23.19
2018-04-12T16:06:46.249Z,23.27
2018-04-12T16:09:14.692Z,23.29
2018-04-12T16:11:43.074Z,23.02
2018-04-12T16:14:11.491Z,22.62
2018-04-12T16:16:40.066Z,22.49
2018-04-12T16:19:08.207Z,22.49
2018-04-12T16:21:36.352Z,22.40
2018-04-12T16:24:04.717Z,22.33
2018-04-12T16:26:33.111Z,22.25
2018-04-12T16:29:01.546Z,22.13
2018-04-12T16:31:29.975Z,22.06
2018-04-12T16:33:58.371Z,21.83
2018-04-12T16:36:26.964Z,21.97
2018-04-12T16:38:55.327Z,21.95
2018-04-12T16:41:23.509Z,21.81
2018-04-12T16:43:51.888Z,21.73
2018-04-12T16:46:20.254Z,21.64
2018-04-12T16:48:48.636Z,21.61
2018-04-12T16:51:16.803Z,21.59
2018-04-12T16:53:45.173Z,21.48
2018-04-12T16:56:13.315Z,21.35
2018-04-12T16:58:41.709Z,21.33
2018-04-12T17:01:10.100Z,21.27
2018-04-12T17:03:38.490Z,21.14
2018-04-12T17:06:07.057Z,21.06
2018-04-12T17:08:35.435Z,20.92
2018-04-12T17:11:03.810Z,20.95
2018-04-12T17:13:32.194Z,20.93
2018-04-12T17:16:00.344Z,20.90
2018-04-12T17:18:28.801Z,20.90
2018-04-12T17:20:57.180Z,20.85
2018-04-12T17:23:25.566Z,20.79
2018-04-12T17:25:53.948Z,20.81
2018-04-12T17:28:22.098Z,20.71
2018-04-12T17:30:50.482Z,20.57
2018-04-12T17:33:18.866Z,20.61
2018-04-12T17:35:47.234Z,20.60
2018-04-12T17:38:15.397Z,20.38
2018-04-12T17:40:43.772Z,20.53
2018-04-12T17:43:12.151Z,20.54
2018-04-12T17:45:40.515Z,20.53
2018-04-12T17:48:08.925Z,20.52
2018-04-12T17:50:37.493Z,20.51
2018-04-12T17:53:05.863Z,20.50
2018-04-12T17:55:34.253Z,20.40
2018-04-12T17:58:02.629Z,20.40
2018-04-12T18:00:31.021Z,20.39
2018-04-12T18:02:59.386Z,20.39
2018-04-12T18:05:27.781Z,20.35
2018-04-12T18:07:56.175Z,20.25
2018-04-12T18:10:24.361Z,20.14
2018-04-12T18:12:52.732Z,20.07
2018-04-12T18:15:21.122Z,20.03
2018-04-12T18:17:49.504Z,19.96
2018-04-12T18:20:17.876Z,19.96
2018-04-12T18:22:46.262Z,19.90
2018-04-12T18:25:14.639Z,19.99
2018-04-12T18:27:43.008Z,19.97
2018-04-12T18:30:11.473Z,19.94
2018-04-12T18:32:39.841Z,19.82
2018-04-12T18:35:10.058Z,19.78
2018-04-12T18:37:38.432Z,19.71
2018-04-12T18:40:06.840Z,19.66
2018-04-12T18:42:35.213Z,19.63
2018-04-12T18:45:03.699Z,19.61
2018-04-12T18:47:34.817Z,19.59
2018-04-12T18:50:03.892Z,19.52
2018-04-12T18:52:33.015Z,19.47
2018-04-12T18:55:01.174Z,19.39
2018-04-12T18:57:29.548Z,19.18
2018-04-12T18:59:57.928Z,19.14
2018-04-12T19:02:26.300Z,18.83
2018-04-12T19:04:54.685Z,19.07
2018-04-12T19:07:23.761Z,18.99
2018-04-12T19:09:52.136Z,18.94
2018-04-12T19:12:20.534Z,18.89
2018-04-12T19:14:48.901Z,18.85
2018-04-12T19:17:17.351Z,18.84
2018-04-12T19:19:45.740Z,18.79
2018-04-12T19:22:14.150Z,18.77
2018-04-12T19:24:42.575Z,18.75
2018-04-12T19:27:10.967Z,18.71
2018-04-12T19:29:39.345Z,18.63
2018-04-12T19:32:07.757Z,18.64
2018-04-12T19:34:36.339Z,18.63
2018-04-12T19:37:04.418Z,18.58
2018-04-12T19:39:32.792Z,18.54
2018-04-12T19:42:01.211Z,18.60
2018-04-12T19:44:29.376Z,18.63
2018-04-12T19:46:57.949Z,18.66
2018-04-12T19:49:26.370Z,18.68
2018-04-12T19:51:54.911Z,18.66
2018-04-12T19:54:23.281Z,18.66
2018-04-12T19:56:51.438Z,18.60
2018-04-12T19:59:19.835Z,18.44
2018-04-12T20:01:48.212Z,18.58
2018-04-12T20:04:16.658Z,18.61
2018-04-12T20:06:45.046Z,18.64
2018-04-12T20:09:13.425Z,18.63
2018-04-12T20:11:42.109Z,18.65
2018-04-12T20:14:10.494Z,18.59
2018-04-12T20:16:38.864Z,18.59
2018-04-12T20:19:07.238Z,18.52
2018-04-12T20:21:35.608Z,18.48
2018-04-12T20:24:04.035Z,18.45
2018-04-12T20:26:32.449Z,18.42
2018-04-12T20:29:00.832Z,18.36
2018-04-12T20:31:29.207Z,18.35
2018-04-12T20:33:57.899Z,18.37
2018-04-12T20:36:26.248Z,18.30
2018-04-12T20:38:54.625Z,18.28
2018-04-12T20:41:23.002Z,18.25
2018-04-12T20:43:51.365Z,18.21
2018-04-12T20:46:19.728Z,18.16
2018-04-12T20:48:48.109Z,18.16
2018-04-12T20:51:16.481Z,18.14
2018-04-12T20:53:44.861Z,18.14
2018-04-12T20:56:13.232Z,18.13
2018-04-12T20:58:41.612Z,18.16
2018-04-12T21:01:09.980Z,18.18
2018-04-12T21:03:38.355Z,18.21
2018-04-12T21:06:06.747Z,18.16
2018-04-12T21:08:35.118Z,18.17
2018-04-12T21:11:03.488Z,18.06
2018-04-12T21:13:31.872Z,18.14
2018-04-12T21:16:00.246Z,18.10
2018-04-12T21:18:28.674Z,18.07
2018-04-12T21:20:57.072Z,17.98
2018-04-12T21:23:25.446Z,17.97
2018-04-12T21:25:53.851Z,17.78
2018-04-12T21:28:22.097Z,17.68
2018-04-12T21:30:50.476Z,17.56
2018-04-12T21:33:18.949Z,17.65
2018-04-12T21:35:47.330Z,17.66
2018-04-12T21:38:15.770Z,17.66
2018-04-12T21:40:44.148Z,17.49
2018-04-12T21:43:12.303Z,17.72
2018-04-12T21:45:40.694Z,17.72
2018-04-12T21:48:09.072Z,17.76
2018-04-12T21:50:37.444Z,17.83
2018-04-12T21:53:05.829Z,17.90
2018-04-12T21:55:34.213Z,17.95
2018-04-12T21:58:02.592Z,17.96
2018-04-12T22:00:30.729Z,17.97
2018-04-12T22:02:59.097Z,17.96
2018-04-12T22:05:28.465Z,18.06
2018-04-12T22:07:57.433Z,18.00
2018-04-12T22:10:25.805Z,17.97
2018-04-12T22:12:54.207Z,17.95
2018-04-12T22:15:22.765Z,17.96
2018-04-12T22:17:51.145Z,17.98
2018-04-12T22:20:19.520Z,17.93
2018-04-12T22:22:47.901Z,17.93
2018-04-12T22:25:16.281Z,17.91
2018-04-12T22:27:44.653Z,17.95
2018-04-12T22:30:13.038Z,17.94
2018-04-12T22:32:41.421Z,17.90
2018-04-12T22:35:09.793Z,17.87
2018-04-12T22:37:38.172Z,17.89
2018-04-12T22:40:10.301Z,17.88
2018-04-12T22:42:38.701Z,17.86
2018-04-12T22:45:07.178Z,17.86
2018-04-12T22:47:35.548Z,17.80
2018-04-12T22:50:03.344Z,17.76
2018-04-12T22:52:31.803Z,17.69
2018-04-12T22:55:00.178Z,17.69
2018-04-12T22:57:28.577Z,17.66
2018-04-12T22:59:56.977Z,17.58
2018-04-12T23:02:25.358Z,17.56
2018-04-12T23:04:53.733Z,17.60
2018-04-12T23:07:22.125Z,17.55
2018-04-12T23:09:50.500Z,17.43
2018-04-12T23:12:18.904Z,17.30
2018-04-12T23:14:47.293Z,17.16
2018-04-12T23:17:15.662Z,17.08
2018-04-12T23:19:44.023Z,16.98
2018-04-12T23:22:12.405Z,16.93
2018-04-12T23:24:40.792Z,16.87
2018-04-12T23:27:08.933Z,16.80
2018-04-12T23:29:37.343Z,16.69
2018-04-12T23:32:05.941Z,16.64
2018-04-12T23:34:34.315Z,16.40
2018-04-12T23:37:02.703Z,16.58
2018-04-12T23:39:31.075Z,16.63
2018-04-12T23:41:59.680Z,16.65
2018-04-12T23:44:28.060Z,16.72
2018-04-12T23:46:56.439Z,16.77
2018-04-12T23:49:24.817Z,16.75
2018-04-12T23:51:53.212Z,16.86
2018-04-12T23:54:21.350Z,16.92
2018-04-12T23:56:49.745Z,16.97
2018-04-12T23:59:18.143Z,17.01
